createdAt,value
2022-11-06T00:02:20.533Z,5.42
2022-11-06T00:04:52.625Z,5.42
2022-11-06T00:07:24.140Z,5.43
2022-11-06T00:09:57.726Z,5.42
2022-11-06T00:12:29.318Z,5.41
2022-11-06T00:15:00.895Z,5.41
2022-11-06T00:17:35.219Z,5.42
2022-11-06T00:20:08.513Z,5.42
2022-11-06T00:22:40.040Z,5.42
2022-11-06T00:25:11.887Z,5.40
2022-11-06T00:27:43.870Z,5.39
2022-11-06T00:30:15.560Z,5.35
2022-11-06T00:32:48.420Z,5.31
2022-11-06T00:35:19.999Z,5.30
2022-11-06T00:37:51.496Z,5.28
2022-11-06T00:40:23.268Z,5.19
2022-11-06T00:42:55.904Z,5.17
2022-11-06T00:45:27.459Z,5.16
2022-11-06T00:47:58.990Z,5.16
2022-11-06T00:50:30.648Z,5.16
2022-11-06T00:53:02.160Z,5.18
2022-11-06T00:55:33.720Z,5.19
2022-11-06T00:58:05.246Z,5.16
2022-11-06T01:00:36.793Z,5.16
2022-11-06T01:03:08.399Z,5.17
2022-11-06T01:05:41.871Z,5.16
2022-11-06T01:08:13.669Z,5.16
2022-11-06T01:10:45.368Z,5.18
2022-11-06T01:13:17.266Z,5.19
2022-11-06T01:15:48.833Z,5.21
2022-11-06T01:18:20.528Z,5.22
2022-11-06T01:20:52.130Z,5.22
2022-11-06T01:23:23.672Z,5.23
2022-11-06T01:26:00.690Z,5.23
2022-11-06T01:28:33.212Z,5.17
2022-11-06T01:31:11.215Z,5.13
2022-11-06T01:33:45.182Z,5.19
2022-11-06T01:36:19.790Z,5.18
2022-11-06T01:38:53.369Z,5.19
2022-11-06T01:41:31.178Z,5.22
2022-11-06T01:44:09.670Z,5.20
2022-11-06T01:46:41.516Z,5.22
2022-11-06T01:49:16.563Z,5.25
2022-11-06T01:51:53.074Z,5.27
2022-11-06T01:54:27.658Z,5.28
2022-11-06T01:57:01.286Z,5.31
2022-11-06T01:59:35.886Z,5.32
2022-11-06T02:02:07.702Z,5.34
2022-11-06T02:04:43.378Z,5.35
2022-11-06T02:07:17.217Z,5.36
2022-11-06T02:09:48.760Z,5.38
2022-11-06T02:12:48.071Z,5.41
2022-11-06T02:15:40.522Z,5.38
2022-11-06T02:18:43.331Z,5.34
2022-11-06T02:21:44.930Z,5.30
2022-11-06T02:24:36.261Z,5.24
2022-11-06T02:27:12.288Z,5.20
2022-11-06T02:30:14.530Z,5.24
2022-11-06T02:33:03.350Z,5.25
2022-11-06T02:35:47.594Z,5.30
2022-11-06T02:38:24.674Z,5.30
2022-11-06T02:40:59.770Z,5.30
2022-11-06T02:43:47.126Z,5.35
2022-11-06T02:46:24.611Z,5.39
2022-11-06T02:49:20.495Z,5.43
2022-11-06T02:52:01.186Z,5.42
2022-11-06T02:54:37.880Z,5.38
2022-11-06T02:57:17.574Z,5.30
2022-11-06T03:00:10.638Z,5.27
2022-11-06T03:03:06.993Z,5.26
2022-11-06T03:05:50.066Z,5.22
2022-11-06T03:08:36.963Z,5.21
2022-11-06T03:11:26.095Z,5.20
2022-11-06T03:14:19.740Z,5.22
2022-11-06T03:17:11.106Z,5.19
2022-11-06T03:19:57.556Z,5.20
2022-11-06T03:22:37.559Z,5.21
2022-11-06T03:25:18.531Z,5.17
2022-11-06T03:28:06.676Z,5.20
2022-11-06T03:30:57.923Z,5.20
2022-11-06T03:33:43.155Z,5.21
2022-11-06T03:36:22.410Z,5.15
2022-11-06T03:39:00.862Z,5.10
2022-11-06T03:41:36.708Z,5.08
2022-11-06T03:44:13.090Z,5.09
2022-11-06T03:46:58.123Z,5.03
2022-11-06T03:49:40.063Z,4.88
2022-11-06T03:52:54.177Z,4.84
2022-11-06T03:55:33.636Z,4.84
2022-11-06T03:58:09.199Z,4.74
2022-11-06T04:00:43.069Z,4.73
2022-11-06T04:03:24.139Z,4.77
2022-11-06T04:06:06.010Z,4.82
2022-11-06T04:08:57.442Z,4.81
2022-11-06T04:11:52.436Z,4.64
2022-11-06T04:14:27.625Z,4.42
2022-11-06T04:17:02.614Z,4.40
2022-11-06T04:19:34.137Z,4.38
2022-11-06T04:22:44.825Z,4.42
2022-11-06T04:25:52.909Z,4.46
2022-11-06T04:28:33.768Z,4.43
2022-11-06T04:31:34.541Z,4.45
2022-11-06T04:34:40.864Z,4.51
2022-11-06T04:37:35.470Z,4.49
2022-11-06T04:40:53.957Z,4.56
2022-11-06T04:43:28.695Z,4.64
2022-11-06T04:46:02.199Z,4.70
2022-11-06T04:48:34.531Z,4.72
2022-11-06T04:51:09.052Z,4.79
2022-11-06T04:53:41.973Z,4.76
2022-11-06T04:56:21.426Z,4.76
2022-11-06T04:58:53.274Z,4.83
2022-11-06T05:01:25.406Z,4.93
2022-11-06T05:03:57.360Z,5.01
2022-11-06T05:06:31.999Z,5.05
2022-11-06T05:09:03.943Z,5.11
2022-11-06T05:11:35.641Z,5.12
2022-11-06T05:14:07.194Z,5.18
2022-11-06T05:16:38.778Z,5.13
2022-11-06T05:19:10.348Z,5.14
2022-11-06T05:22:00.370Z,5.11
2022-11-06T05:24:34.838Z,5.12
2022-11-06T05:27:06.459Z,5.19
2022-11-06T05:29:37.989Z,5.20
2022-11-06T05:32:09.541Z,5.17
2022-11-06T05:34:42.295Z,5.15
2022-11-06T05:37:13.872Z,5.18
2022-11-06T05:39:45.423Z,5.21
2022-11-06T05:42:16.992Z,5.25
2022-11-06T05:44:48.540Z,5.24
2022-11-06T05:47:20.095Z,5.25
2022-11-06T05:49:51.615Z,5.19
2022-11-06T05:52:23.214Z,5.23
2022-11-06T05:54:54.745Z,5.30
2022-11-06T05:57:26.315Z,5.28
2022-11-06T05:59:57.885Z,5.30
2022-11-06T06:02:29.564Z,5.32
2022-11-06T06:05:01.189Z,5.27
2022-11-06T06:07:33.055Z,5.30
2022-11-06T06:10:05.237Z,5.32
2022-11-06T06:12:37.067Z,5.38
2022-11-06T06:15:14.933Z,5.40
2022-11-06T06:17:46.662Z,5.42
2022-11-06T06:20:18.192Z,5.48
2022-11-06T06:22:57.332Z,5.50
2022-11-06T06:25:29.522Z,5.52
2022-11-06T06:28:01.085Z,5.48
2022-11-06T06:30:32.701Z,5.51
2022-11-06T06:33:06.308Z,5.56
2022-11-06T06:35:38.210Z,5.60
2022-11-06T06:38:10.072Z,5.64
2022-11-06T06:40:41.803Z,5.69
2022-11-06T06:43:13.364Z,5.75
2022-11-06T06:45:45.246Z,5.75
2022-11-06T06:48:16.888Z,5.78
2022-11-06T06:50:48.575Z,5.82
2022-11-06T06:53:20.176Z,5.88
2022-11-06T06:55:51.755Z,5.91
2022-11-06T06:58:23.523Z,5.90
2022-11-06T07:00:58.568Z,5.90
2022-11-06T07:03:30.200Z,5.85
2022-11-06T07:06:01.758Z,5.77
2022-11-06T07:08:33.707Z,5.76
2022-11-06T07:11:07.885Z,5.75
2022-11-06T07:13:43.968Z,5.80
2022-11-06T07:16:15.788Z,5.85
2022-11-06T07:18:47.315Z,5.90
2022-11-06T07:21:18.928Z,5.90
2022-11-06T07:23:53.416Z,5.93
2022-11-06T07:26:25.013Z,6.01
2022-11-06T07:28:56.568Z,6.03
2022-11-06T07:31:31.044Z,6.11
2022-11-06T07:34:02.722Z,6.23
2022-11-06T07:36:35.330Z,6.26
2022-11-06T07:39:06.844Z,6.27
2022-11-06T07:41:38.495Z,6.33
2022-11-06T07:44:10.357Z,6.32
2022-11-06T07:46:41.967Z,6.32
2022-11-06T07:49:13.940Z,6.39
2022-11-06T07:51:45.475Z,6.46
2022-11-06T07:54:17.039Z,6.53
2022-11-06T07:56:48.578Z,6.60
2022-11-06T07:59:20.138Z,6.62
2022-11-06T08:01:51.868Z,6.65
2022-11-06T08:04:23.480Z,6.70
2022-11-06T08:06:57.258Z,6.75
2022-11-06T08:09:28.827Z,6.90
2022-11-06T08:12:03.260Z,7.24
2022-11-06T08:14:38.780Z,7.60
2022-11-06T08:17:12.991Z,7.87
2022-11-06T08:19:44.560Z,7.93
2022-11-06T08:22:16.142Z,7.93
2022-11-06T08:24:47.715Z,7.96
2022-11-06T08:27:19.340Z,7.98
2022-11-06T08:29:50.932Z,7.98
2022-11-06T08:32:22.518Z,7.94
2022-11-06T08:34:54.101Z,7.87
2022-11-06T08:37:25.658Z,7.75
2022-11-06T08:39:57.250Z,7.64
2022-11-06T08:42:29.376Z,7.42
2022-11-06T08:45:01.021Z,7.34
2022-11-06T08:47:32.655Z,7.25
2022-11-06T08:50:04.945Z,7.19
2022-11-06T08:52:36.465Z,7.09
2022-11-06T08:55:08.377Z,7.08
2022-11-06T08:57:39.968Z,7.15
2022-11-06T09:00:12.402Z,7.17
2022-11-06T09:02:44.027Z,7.13
2022-11-06T09:05:15.731Z,7.10
2022-11-06T09:07:47.253Z,7.13
2022-11-06T09:10:18.915Z,7.16
2022-11-06T09:12:50.515Z,7.19
2022-11-06T09:15:22.381Z,7.31
2022-11-06T09:17:54.588Z,7.41
2022-11-06T09:20:26.995Z,7.48
2022-11-06T09:23:06.723Z,7.45
2022-11-06T09:25:38.310Z,7.50
2022-11-06T09:28:09.910Z,7.54
2022-11-06T09:30:41.511Z,7.58
2022-11-06T09:33:13.899Z,7.64
2022-11-06T09:35:45.602Z,7.69
2022-11-06T09:38:17.219Z,7.77
2022-11-06T09:41:01.645Z,7.82
2022-11-06T09:44:08.747Z,7.93
2022-11-06T09:46:45.467Z,8.01
2022-11-06T09:49:23.642Z,7.98
2022-11-06T09:52:13.713Z,7.98
2022-11-06T09:54:59.796Z,7.94
2022-11-06T09:57:50.098Z,7.91
2022-11-06T10:00:22.816Z,7.94
2022-11-06T10:03:06.124Z,7.97
2022-11-06T10:05:39.955Z,8.07
2022-11-06T10:08:23.670Z,8.21
2022-11-06T10:11:30.404Z,8.47
2022-11-06T10:14:31.807Z,8.79
2022-11-06T10:17:41.898Z,8.97
2022-11-06T10:20:13.538Z,9.12
2022-11-06T10:23:13.151Z,9.34
2022-11-06T10:26:10.449Z,9.79
2022-11-06T10:28:57.850Z,10.14
2022-11-06T10:31:38.428Z,10.88
2022-11-06T10:34:15.113Z,12.00
2022-11-06T10:36:51.695Z,12.71
2022-11-06T10:39:28.776Z,12.94
2022-11-06T10:42:09.781Z,13.26
2022-11-06T10:44:52.918Z,13.39
2022-11-06T10:47:32.308Z,13.40
2022-11-06T10:50:11.450Z,13.60
2022-11-06T10:52:54.687Z,13.86
2022-11-06T10:55:46.063Z,14.12
2022-11-06T10:58:28.706Z,14.24
2022-11-06T11:01:06.043Z,14.40
2022-11-06T11:03:43.134Z,14.38
2022-11-06T11:06:14.698Z,14.34
2022-11-06T11:08:51.419Z,14.65
2022-11-06T11:11:27.659Z,15.23
2022-11-06T11:14:02.225Z,15.77
2022-11-06T11:16:35.258Z,15.89
2022-11-06T11:19:34.373Z,15.91
2022-11-06T11:22:19.945Z,15.69
2022-11-06T11:25:02.841Z,15.64
2022-11-06T11:27:44.286Z,15.90
2022-11-06T11:30:26.626Z,16.14
2022-11-06T11:32:59.409Z,16.25
2022-11-06T11:35:31.866Z,16.36
2022-11-06T11:38:09.860Z,16.57
2022-11-06T11:40:41.616Z,16.61
2022-11-06T11:43:26.741Z,16.79
2022-11-06T11:46:08.896Z,16.90
2022-11-06T11:48:59.793Z,16.87
2022-11-06T11:51:34.033Z,16.98
2022-11-06T11:54:18.392Z,16.97
2022-11-06T11:57:08.778Z,16.99
2022-11-06T12:00:02.877Z,17.13
2022-11-06T12:02:43.184Z,17.39
2022-11-06T12:05:18.744Z,17.53
2022-11-06T12:07:54.603Z,17.40
2022-11-06T12:10:33.592Z,17.10
2022-11-06T12:13:07.964Z,16.56
2022-11-06T12:15:51.831Z,16.26
2022-11-06T12:18:31.632Z,15.81
2022-11-06T12:21:24.054Z,15.31
2022-11-06T12:24:14.758Z,14.94
2022-11-06T12:26:54.165Z,14.33
2022-11-06T12:29:32.858Z,14.01
2022-11-06T12:32:14.692Z,13.52
2022-11-06T12:35:30.367Z,12.80
2022-11-06T12:38:10.971Z,12.37
2022-11-06T12:40:48.378Z,12.25
2022-11-06T12:43:34.330Z,12.17
2022-11-06T12:46:20.294Z,12.22
2022-11-06T12:49:39.284Z,12.18
2022-11-06T12:52:45.976Z,12.21
2022-11-06T12:55:46.737Z,12.02
2022-11-06T12:58:23.907Z,12.09
2022-11-06T13:01:19.566Z,12.02
2022-11-06T13:04:02.394Z,12.00
2022-11-06T13:06:59.183Z,11.94
2022-11-06T13:09:41.083Z,11.87
2022-11-06T13:12:22.494Z,11.93
2022-11-06T13:15:12.774Z,11.90
2022-11-06T13:17:53.251Z,11.80
2022-11-06T13:20:33.828Z,11.40
2022-11-06T13:23:25.744Z,11.29
2022-11-06T13:26:11.628Z,11.28
2022-11-06T13:28:50.696Z,11.21
2022-11-06T13:31:26.968Z,11.15
2022-11-06T13:34:01.399Z,10.97
2022-11-06T13:36:36.349Z,10.63
2022-11-06T13:39:18.016Z,10.73
2022-11-06T13:41:54.863Z,10.66
2022-11-06T13:44:28.155Z,10.39
2022-11-06T13:47:12.682Z,10.32
2022-11-06T13:50:06.955Z,10.02
2022-11-06T13:53:00.477Z,9.78
2022-11-06T13:56:04.209Z,9.68
2022-11-06T13:59:04.858Z,9.38
2022-11-06T14:01:42.270Z,9.24
2022-11-06T14:04:41.751Z,9.24
2022-11-06T14:07:15.898Z,9.31
2022-11-06T14:09:48.040Z,9.33
2022-11-06T14:12:22.330Z,9.37
2022-11-06T14:15:15.030Z,9.30
2022-11-06T14:17:58.812Z,9.34
2022-11-06T14:20:38.112Z,9.40
2022-11-06T14:23:28.396Z,9.41
2022-11-06T14:26:08.388Z,9.46
2022-11-06T14:28:42.045Z,9.49
2022-11-06T14:31:51.848Z,9.56
2022-11-06T14:34:29.538Z,9.55
2022-11-06T14:37:19.078Z,9.56
2022-11-06T14:39:56.621Z,9.48
2022-11-06T14:42:39.736Z,9.43
2022-11-06T14:45:17.953Z,9.38
2022-11-06T14:47:55.764Z,9.32
2022-11-06T14:50:40.916Z,9.35
2022-11-06T14:53:21.723Z,9.44
2022-11-06T14:55:58.235Z,9.40
2022-11-06T14:58:47.542Z,9.14
2022-11-06T15:01:31.199Z,8.91
2022-11-06T15:04:06.512Z,8.86
2022-11-06T15:06:43.655Z,8.80
2022-11-06T15:09:37.705Z,8.69
2022-11-06T15:12:09.313Z,8.67
2022-11-06T15:14:40.828Z,8.67
2022-11-06T15:17:15.684Z,8.62
2022-11-06T15:20:05.172Z,8.57
2022-11-06T15:22:50.231Z,8.55
2022-11-06T15:25:23.160Z,8.52
2022-11-06T15:28:04.932Z,8.44
2022-11-06T15:31:05.459Z,8.40
2022-11-06T15:33:55.321Z,8.37
2022-11-06T15:36:32.745Z,8.34
2022-11-06T15:39:32.657Z,8.27
2022-11-06T15:42:09.248Z,8.20
2022-11-06T15:44:42.583Z,8.12
2022-11-06T15:47:20.109Z,8.10
2022-11-06T15:50:17.879Z,8.01
2022-11-06T15:52:50.360Z,7.96
2022-11-06T15:55:37.400Z,7.95
2022-11-06T15:58:18.372Z,7.85
2022-11-06T16:00:49.968Z,7.85
2022-11-06T16:03:24.950Z,7.81
2022-11-06T16:05:58.904Z,7.80
2022-11-06T16:08:32.497Z,7.80
2022-11-06T16:11:09.285Z,7.84
2022-11-06T16:13:46.648Z,7.74
2022-11-06T16:16:35.567Z,7.72
2022-11-06T16:19:24.693Z,7.69
2022-11-06T16:22:07.588Z,7.65
2022-11-06T16:24:48.469Z,7.64
2022-11-06T16:27:22.638Z,7.63
2022-11-06T16:29:57.834Z,7.57
2022-11-06T16:32:37.960Z,7.61
2022-11-06T16:35:31.789Z,7.61
2022-11-06T16:38:39.374Z,7.62
2022-11-06T16:41:07.824Z,7.64
2022-11-06T16:43:39.429Z,7.63
2022-11-06T16:46:11.096Z,7.65
2022-11-06T16:48:45.095Z,7.65
2022-11-06T16:51:33.934Z,7.65
2022-11-06T16:54:05.602Z,7.62
2022-11-06T16:56:37.219Z,7.60
2022-11-06T16:59:16.558Z,7.60
2022-11-06T17:01:48.390Z,7.51
2022-11-06T17:04:23.707Z,7.49
2022-11-06T17:06:56.475Z,7.49
2022-11-06T17:09:37.610Z,7.46
2022-11-06T17:12:11.205Z,7.43
2022-11-06T17:14:46.873Z,7.45
2022-11-06T17:17:25.957Z,7.48
2022-11-06T17:19:57.536Z,7.49
2022-11-06T17:22:29.625Z,7.50
2022-11-06T17:25:01.230Z,7.46
2022-11-06T17:27:33.155Z,7.46
2022-11-06T17:30:04.994Z,7.42
2022-11-06T17:32:36.597Z,7.43
2022-11-06T17:35:10.247Z,7.37
2022-11-06T17:37:41.825Z,7.37
2022-11-06T17:40:13.419Z,7.32
2022-11-06T17:42:45.026Z,7.30
2022-11-06T17:45:16.665Z,7.30
2022-11-06T17:47:48.458Z,7.24
2022-11-06T17:50:20.329Z,7.22
2022-11-06T17:52:52.205Z,7.24
2022-11-06T17:55:23.862Z,7.19
2022-11-06T17:57:55.493Z,7.16
2022-11-06T18:00:27.037Z,7.08
2022-11-06T18:03:02.025Z,7.07
2022-11-06T18:05:35.964Z,7.04
2022-11-06T18:08:12.655Z,7.07
2022-11-06T18:10:44.516Z,7.07
2022-11-06T18:13:18.130Z,7.08
2022-11-06T18:15:49.773Z,7.08
2022-11-06T18:18:21.480Z,7.11
2022-11-06T18:20:53.128Z,7.17
2022-11-06T18:23:24.827Z,7.07
2022-11-06T18:25:57.597Z,7.28
2022-11-06T18:28:29.195Z,7.27
2022-11-06T18:31:01.071Z,7.13
2022-11-06T18:33:32.995Z,7.08
2022-11-06T18:36:07.728Z,7.04
2022-11-06T18:38:39.776Z,6.97
2022-11-06T18:41:16.987Z,6.92
2022-11-06T18:43:49.004Z,6.86
2022-11-06T18:46:20.542Z,6.86
2022-11-06T18:48:52.580Z,6.87
2022-11-06T18:51:35.253Z,6.89
2022-11-06T18:54:09.876Z,6.89
2022-11-06T18:56:41.960Z,6.86
2022-11-06T18:59:16.550Z,6.87
2022-11-06T19:01:48.281Z,6.87
2022-11-06T19:04:21.896Z,6.86
2022-11-06T19:06:53.836Z,6.91
2022-11-06T19:09:25.405Z,6.94
2022-11-06T19:11:57.026Z,6.94
2022-11-06T19:14:28.653Z,7.01
2022-11-06T19:17:00.218Z,7.01
2022-11-06T19:19:31.769Z,6.96
2022-11-06T19:22:03.539Z,6.99
2022-11-06T19:24:35.160Z,6.90
2022-11-06T19:27:08.697Z,6.88
2022-11-06T19:29:40.288Z,6.90
2022-11-06T19:32:11.856Z,6.89
2022-11-06T19:34:43.509Z,6.90
2022-11-06T19:37:15.104Z,6.88
2022-11-06T19:39:46.699Z,6.81
2022-11-06T19:42:18.281Z,6.86
2022-11-06T19:44:50.383Z,6.86
2022-11-06T19:47:22.062Z,6.88
2022-11-06T19:49:54.106Z,6.84
2022-11-06T19:52:41.133Z,6.78
2022-11-06T19:55:25.550Z,6.81
2022-11-06T19:57:59.199Z,6.87
2022-11-06T20:00:30.851Z,6.82
2022-11-06T20:03:02.464Z,6.73
2022-11-06T20:05:34.804Z,6.68
2022-11-06T20:08:07.319Z,6.56
2022-11-06T20:10:38.936Z,6.48
2022-11-06T20:13:10.534Z,6.41
2022-11-06T20:15:42.107Z,6.34
2022-11-06T20:18:13.680Z,6.36
2022-11-06T20:20:46.486Z,6.29
2022-11-06T20:23:18.073Z,6.25
2022-11-06T20:25:52.946Z,6.20
2022-11-06T20:28:27.150Z,6.14
2022-11-06T20:30:59.183Z,6.05
2022-11-06T20:33:30.744Z,6.04
2022-11-06T20:36:13.604Z,6.01
2022-11-06T20:38:45.875Z,5.98
2022-11-06T20:41:17.988Z,6.01
2022-11-06T20:43:51.241Z,6.05
2022-11-06T20:46:29.515Z,6.02
2022-11-06T20:49:01.104Z,6.01
2022-11-06T20:51:43.007Z,6.02
2022-11-06T20:54:27.543Z,6.01
2022-11-06T20:56:59.523Z,6.04
2022-11-06T20:59:32.766Z,6.02
2022-11-06T21:02:04.550Z,6.07
2022-11-06T21:04:36.171Z,6.16
2022-11-06T21:07:07.971Z,6.18
2022-11-06T21:09:39.812Z,6.22
2022-11-06T21:12:11.843Z,6.21
2022-11-06T21:14:43.459Z,6.11
2022-11-06T21:17:15.756Z,6.11
2022-11-06T21:19:47.282Z,6.10
2022-11-06T21:22:21.677Z,6.13
2022-11-06T21:24:53.272Z,6.12
2022-11-06T21:27:24.882Z,6.01
2022-11-06T21:29:58.239Z,5.99
2022-11-06T21:32:31.870Z,6.02
2022-11-06T21:35:06.507Z,6.07
2022-11-06T21:37:38.227Z,6.12
2022-11-06T21:40:10.321Z,6.14
2022-11-06T21:42:41.957Z,6.18
2022-11-06T21:45:14.949Z,6.14
2022-11-06T21:47:46.755Z,6.15
2022-11-06T21:50:28.210Z,6.07
2022-11-06T21:53:19.622Z,6.11
2022-11-06T21:56:00.115Z,6.16
2022-11-06T21:58:31.994Z,6.25
2022-11-06T22:01:05.308Z,6.30
2022-11-06T22:03:41.032Z,6.38
2022-11-06T22:06:15.637Z,6.44
2022-11-06T22:08:48.513Z,6.52
2022-11-06T22:11:23.074Z,6.57
2022-11-06T22:13:56.186Z,6.57
2022-11-06T22:16:33.502Z,6.62
2022-11-06T22:19:07.098Z,6.67
2022-11-06T22:21:39.865Z,6.74
2022-11-06T22:24:13.497Z,6.69
2022-11-06T22:26:46.363Z,6.66
2022-11-06T22:29:18.180Z,6.72
2022-11-06T22:31:52.209Z,6.78
2022-11-06T22:34:23.830Z,6.75
2022-11-06T22:36:55.386Z,6.73
2022-11-06T22:39:27.018Z,6.78
2022-11-06T22:41:58.796Z,6.79
2022-11-06T22:44:34.750Z,6.81
2022-11-06T22:47:06.739Z,6.77
2022-11-06T22:49:38.326Z,6.75
2022-11-06T22:52:09.827Z,6.69
2022-11-06T22:54:41.447Z,6.55
2022-11-06T22:57:13.408Z,6.59
2022-11-06T22:59:44.984Z,6.60
2022-11-06T23:02:16.583Z,6.61
2022-11-06T23:04:48.154Z,6.53
2022-11-06T23:07:19.689Z,6.49
2022-11-06T23:09:51.294Z,6.45
2022-11-06T23:12:22.852Z,6.49
2022-11-06T23:14:54.496Z,6.43
2022-11-06T23:17:26.409Z,6.36
2022-11-06T23:19:57.999Z,6.33
2022-11-06T23:22:38.691Z,6.32
2022-11-06T23:25:11.208Z,6.21
2022-11-06T23:27:48.518Z,6.27
2022-11-06T23:30:21.899Z,6.37
2022-11-06T23:32:53.544Z,6.42
2022-11-06T23:35:31.929Z,6.46
2022-11-06T23:38:04.084Z,6.46
2022-11-06T23:40:35.696Z,6.44
2022-11-06T23:43:07.223Z,6.48
2022-11-06T23:45:51.428Z,6.48
2022-11-06T23:48:22.969Z,6.42
2022-11-06T23:50:54.510Z,6.33
2022-11-06T23:53:26.139Z,6.29
2022-11-06T23:55:57.712Z,6.31
2022-11-06T23:58:29.225Z,6.35
